Time;durP1;ratioP1;P1;durP2;ratioP2;P2;SDS_P1;SDS_P2;PMS_P1;PMS_P2;Temp;Humidity;BMP_temperature;BMP_pressure;BME280_temperature;BME280_humidity;BME280_pressure;Samples;Min_cycle;Max_cycle;Signal;HPM_P1;HPM_P2
2021/05/16 00:02:47;;;;;;;19.33;3.40;;;15.20;99.90;;;;;;11996469;28;20052;-83
2021/05/16 00:08:35;;;;;;;22.73;3.10;;;15.00;99.90;;;;;;12002309;28;20079;-83
2021/05/16 00:14:22;;;;;;;22.90;3.65;;;15.00;99.90;;;;;;12017608;28;20092;-82
2021/05/16 00:20:11;;;;;;;23.20;3.30;;;15.00;99.90;;;;;;11988053;28;20060;-83
2021/05/16 00:25:58;;;;;;;16.90;3.28;;;14.90;99.90;;;;;;11981452;28;20114;-83
2021/05/16 00:31:45;;;;;;;21.23;3.63;;;14.90;99.90;;;;;;11983908;28;20053;-83
2021/05/16 06:13:46;;;;;;;19.45;3.50;;;12.80;99.90;;;;;;12037247;27;20368;-87
2021/05/16 06:19:32;;;;;;;14.77;2.80;;;13.50;99.90;;;;;;12054288;28;20056;-85
2021/05/16 06:25:19;;;;;;;11.07;2.42;;;14.30;99.90;;;;;;12081931;28;20061;-85
2021/05/16 06:31:06;;;;;;;17.83;3.28;;;14.70;99.90;;;;;;12077488;28;20049;-84
2021/05/16 06:36:54;;;;;;;11.27;2.65;;;15.10;99.90;;;;;;12062151;28;20708;-84
2021/05/16 06:42:40;;;;;;;18.17;3.00;;;15.40;99.90;;;;;;12066479;28;20048;-86
2021/05/16 06:48:28;;;;;;;12.15;2.25;;;15.60;99.90;;;;;;12061810;28;20052;-85
2021/05/16 06:54:14;;;;;;;12.13;2.88;;;15.70;99.90;;;;;;12056094;28;20577;-84
2021/05/16 07:00:01;;;;;;;15.65;2.78;;;15.70;99.90;;;;;;12055779;28;20060;-85
2021/05/16 07:05:48;;;;;;;19.65;2.75;;;15.70;99.90;;;;;;12053394;28;20430;-84
2021/05/16 07:11:34;;;;;;;19.15;2.65;;;15.80;99.90;;;;;;12051896;28;20115;-84
2021/05/16 07:17:26;;;;;;;25.17;3.42;;;15.60;99.90;;;;;;12064739;28;20079;-83
2021/05/16 07:23:14;;;;;;;23.77;2.97;;;15.60;99.90;;;;;;12042987;28;20065;-83
2021/05/16 07:29:00;;;;;;;19.92;2.88;;;15.70;99.90;;;;;;12024624;28;20044;-83
2021/05/16 07:34:51;;;;;;;19.55;3.08;;;15.80;99.90;;;;;;12035059;28;20102;-83
2021/05/16 07:40:38;;;;;;;13.88;3.28;;;15.90;99.90;;;;;;12037810;28;20052;-82
2021/05/16 07:46:25;;;;;;;12.43;2.60;;;15.70;99.90;;;;;;12027881;28;20041;-85
2021/05/16 07:52:11;;;;;;;11.00;2.15;;;15.90;99.90;;;;;;12024639;28;20052;-84
2021/05/16 07:57:58;;;;;;;13.20;2.97;;;15.80;99.90;;;;;;12021682;28;20514;-78
2021/05/16 08:03:46;;;;;;;9.48;2.03;;;15.90;99.90;;;;;;12024827;28;20051;-78
2021/05/16 08:09:32;;;;;;;14.05;2.22;;;15.90;99.90;;;;;;12019093;28;20063;-78
2021/05/16 08:15:20;;;;;;;12.40;2.70;;;15.90;99.90;;;;;;12015548;28;20444;-78
2021/05/16 08:21:07;;;;;;;13.45;2.15;;;16.00;99.90;;;;;;12015577;28;20573;-77
2021/05/16 08:26:53;;;;;;;6.18;1.70;;;15.90;99.90;;;;;;12012016;28;20040;-78
2021/05/16 08:32:40;;;;;;;12.57;2.60;;;15.90;99.90;;;;;;12011882;28;20423;-78
2021/05/16 08:38:27;;;;;;;9.13;2.00;;;15.80;99.90;;;;;;12013282;28;20060;-77
2021/05/16 08:44:14;;;;;;;4.90;1.92;;;15.80;99.90;;;;;;11937437;28;20063;-78
2021/05/16 08:50:36;;;;;;;12.85;3.05;;;15.90;99.90;;;;;;11909771;28;20691;-88
2021/05/16 08:56:33;;;;;;;8.15;1.92;;;16.10;99.90;;;;;;11912948;28;20094;-83
2021/05/16 09:02:25;;;;;;;9.02;2.20;;;16.50;99.90;;;;;;11992186;28;20150;-87
2021/05/16 09:08:27;;;;;;;7.25;1.83;;;16.70;99.90;;;;;;11921668;28;20052;-86
2021/05/16 09:14:52;;;;;;;7.45;2.05;;;16.60;99.90;;;;;;11953035;28;20062;-94
2021/05/16 09:20:39;;;;;;;7.75;1.90;;;16.40;99.90;;;;;;11970876;28;20080;-89
2021/05/16 09:26:43;;;;;;;5.38;1.60;;;16.40;99.90;;;;;;12041439;28;20061;-86
2021/05/16 09:32:50;;;;;;;5.13;1.50;;;16.90;99.90;;;;;;12068163;28;20072;-87
2021/05/16 09:38:36;;;;;;;5.47;1.45;;;17.10;99.90;;;;;;12042524;28;21102;-86
2021/05/16 09:45:05;;;;;;;;;;;;;;;;;;;;;
2021/05/16 09:51:35;;;;;;;5.10;1.33;;;16.70;99.90;;;;;;11749610;28;20047;-89
2021/05/16 10:11:31;;;;;;;6.65;1.90;;;16.60;99.90;;;;;;11738955;28;20052;-82
2021/05/16 10:17:20;;;;;;;14.43;7.00;;;16.20;99.90;;;;;;11515864;28;20057;-83
2021/05/16 10:23:10;;;;;;;5.80;1.98;;;16.20;99.90;;;;;;11719143;28;20043;-85
2021/05/16 10:29:40;;;;;;;8.52;2.00;;;16.20;99.90;;;;;;11783972;28;20571;-85
2021/05/16 10:36:14;;;;;;;6.68;1.60;;;16.20;99.90;;;;;;11733507;28;20554;-83
2021/05/16 10:42:15;;;;;;;16.38;1.90;;;16.40;99.90;;;;;;11775212;28;20054;-83
2021/05/16 10:48:12;;;;;;;9.30;1.80;;;16.60;99.90;;;;;;11802256;28;20069;-83
2021/05/16 10:54:02;;;;;;;9.15;1.73;;;16.60;99.90;;;;;;11971378;28;20064;-79
2021/05/16 10:59:48;;;;;;;5.63;1.45;;;16.40;99.90;;;;;;12007577;28;20044;-79
2021/05/16 11:05:59;;;;;;;7.28;2.67;;;16.10;99.90;;;;;;12021915;28;20492;-82
2021/05/16 11:11:56;;;;;;;4.75;1.60;;;16.10;99.90;;;;;;12018046;28;20044;-79
2021/05/16 11:18:07;;;;;;;7.70;1.60;;;15.90;99.90;;;;;;12007298;28;20057;-78
2021/05/16 11:23:54;;;;;;;9.05;2.05;;;15.70;99.90;;;;;;11943971;28;20049;-77
2021/05/16 11:29:52;;;;;;;14.25;5.95;;;16.00;99.90;;;;;;12014028;28;20060;-80
2021/05/16 11:35:43;;;;;;;7.45;2.30;;;16.40;99.90;;;;;;12017485;28;20052;-80
2021/05/16 11:41:43;;;;;;;5.50;1.45;;;16.70;99.90;;;;;;11996276;28;20064;-80
2021/05/16 11:47:37;;;;;;;12.82;1.88;;;16.80;99.90;;;;;;12014619;28;20056;-78
2021/05/16 11:53:23;;;;;;;7.40;2.03;;;17.00;99.90;;;;;;11998334;28;20056;-80
2021/05/16 11:59:13;;;;;;;12.27;2.58;;;17.00;99.90;;;;;;11991600;28;20167;-80
2021/05/16 12:05:44;;;;;;;10.18;1.85;;;17.50;99.90;;;;;;11954378;28;20047;-78
2021/05/16 12:11:32;;;;;;;10.95;1.60;;;17.90;99.90;;;;;;11959093;28;20045;-79
2021/05/16 12:17:18;;;;;;;7.72;1.42;;;17.90;99.90;;;;;;11981332;28;20041;-75
2021/05/16 12:23:06;;;;;;;8.98;1.65;;;18.00;99.90;;;;;;11997084;28;20056;-76
2021/05/16 12:28:54;;;;;;;6.10;1.40;;;18.00;99.90;;;;;;11992100;28;20049;-75
2021/05/16 12:34:40;;;;;;;6.45;1.30;;;18.20;99.90;;;;;;11978221;28;20056;-76
2021/05/16 12:40:28;;;;;;;7.22;1.88;;;18.30;99.90;;;;;;11977264;28;20048;-76
2021/05/16 12:46:14;;;;;;;7.80;1.80;;;18.20;99.90;;;;;;11965946;28;20080;-75
2021/05/16 12:52:02;;;;;;;8.20;1.42;;;17.50;99.90;;;;;;11988019;28;20056;-78
2021/05/16 12:57:56;;;;;;;12.15;1.33;;;17.50;99.90;;;;;;11974788;28;20056;-76
2021/05/16 13:03:51;;;;;;;4.82;0.95;;;17.90;99.90;;;;;;11971425;28;22224;-76
2021/05/16 13:09:38;;;;;;;3.92;1.33;;;18.10;99.90;;;;;;11969849;28;20060;-76
2021/05/16 13:15:33;;;;;;;6.40;1.55;;;18.10;95.50;;;;;;11979121;28;20501;-76
2021/05/16 13:21:30;;;;;;;5.80;1.35;;;18.40;95.80;;;;;;11986488;28;20049;-76
2021/05/16 13:27:20;;;;;;;3.75;1.13;;;18.80;94.40;;;;;;11989572;28;20728;-76
2021/05/16 13:33:11;;;;;;;7.82;1.30;;;18.90;91.10;;;;;;11992850;28;21341;-76
2021/05/16 13:38:57;;;;;;;4.95;1.20;;;19.20;91.00;;;;;;11987591;28;20595;-76
2021/05/16 13:44:43;;;;;;;8.00;1.60;;;18.60;88.90;;;;;;11988896;28;20060;-76
2021/05/16 13:50:31;;;;;;;8.00;1.77;;;18.00;93.30;;;;;;11984801;28;20044;-76
2021/05/16 13:56:17;;;;;;;7.00;1.33;;;18.10;94.60;;;;;;11988578;28;20086;-76
2021/05/16 14:02:04;;;;;;;7.88;1.38;;;18.60;93.80;;;;;;12001558;28;20056;-81
2021/05/16 14:07:51;;;;;;;11.18;1.70;;;19.30;92.90;;;;;;12002768;28;20106;-81
2021/05/16 14:13:37;;;;;;;7.97;1.55;;;19.50;92.00;;;;;;12002308;28;20045;-81
2021/05/16 14:19:24;;;;;;;8.52;1.35;;;19.70;90.60;;;;;;12006527;28;20052;-76
2021/05/16 14:25:12;;;;;;;3.97;1.05;;;19.60;90.30;;;;;;11992200;28;21127;-75
2021/05/16 14:30:58;;;;;;;7.72;1.20;;;19.10;91.60;;;;;;11989786;28;20040;-76
2021/05/16 14:36:44;;;;;;;8.02;1.20;;;19.10;84.30;;;;;;11999641;28;20075;-77
2021/05/16 14:42:32;;;;;;;6.93;1.70;;;19.00;87.00;;;;;;12001963;28;20576;-77
2021/05/16 14:48:18;;;;;;;5.80;0.57;;;18.70;89.30;;;;;;12003126;28;20088;-77
2021/05/16 14:54:06;;;;;;;3.85;0.40;;;18.50;82.90;;;;;;12013931;28;20239;-75
2021/05/16 14:59:53;;;;;;;1.55;0.35;;;18.50;82.00;;;;;;12005226;28;20594;-77
2021/05/16 15:05:39;;;;;;;3.40;0.80;;;17.90;85.80;;;;;;12007426;28;20049;-76
2021/05/16 15:11:26;;;;;;;6.05;1.02;;;17.80;88.60;;;;;;11993378;28;20491;-76
2021/05/16 15:17:13;;;;;;;6.32;0.80;;;17.70;88.80;;;;;;12007652;28;20044;-76
2021/05/16 15:22:59;;;;;;;2.03;0.55;;;17.90;86.90;;;;;;12005230;28;20052;-76
2021/05/16 15:28:46;;;;;;;2.13;0.60;;;18.00;89.20;;;;;;11993919;28;20408;-76
2021/05/16 15:34:33;;;;;;;2.13;0.50;;;18.40;88.90;;;;;;12008030;28;20720;-76
2021/05/16 15:40:22;;;;;;;2.58;0.73;;;18.80;87.00;;;;;;12001257;28;20087;-83
2021/05/16 15:46:08;;;;;;;1.65;0.55;;;19.00;86.50;;;;;;12020107;28;20053;-83
2021/05/16 15:51:56;;;;;;;3.90;0.85;;;18.60;87.00;;;;;;12017772;28;20061;-83
2021/05/16 15:57:42;;;;;;;6.20;0.95;;;18.20;89.60;;;;;;12028138;28;20052;-83
2021/05/16 16:03:29;;;;;;;6.30;0.88;;;17.70;91.10;;;;;;12017443;28;20041;-83
2021/05/16 16:09:16;;;;;;;4.22;0.80;;;17.40;92.50;;;;;;12016890;28;20053;-86
2021/05/16 16:15:03;;;;;;;3.60;0.73;;;17.30;93.60;;;;;;12010808;28;20070;-85
2021/05/16 16:20:49;;;;;;;4.72;1.00;;;16.90;94.30;;;;;;12027037;28;20063;-84
2021/05/16 16:26:37;;;;;;;7.03;1.20;;;16.60;95.00;;;;;;12015109;28;20052;-86
2021/05/16 16:32:24;;;;;;;10.52;1.40;;;15.70;99.90;;;;;;12002857;28;20102;-87
2021/05/16 16:38:11;;;;;;;2.85;0.80;;;15.00;99.90;;;;;;11973732;28;20053;-82
2021/05/16 16:43:58;;;;;;;4.22;1.00;;;14.90;99.90;;;;;;11982386;28;20094;-81
2021/05/16 16:49:44;;;;;;;6.72;1.20;;;16.10;99.90;;;;;;12009042;28;20048;-82
2021/05/16 16:55:34;;;;;;;2.97;1.00;;;19.90;99.90;;;;;;12016355;28;20076;-82
2021/05/16 17:01:22;;;;;;;4.00;0.60;;;23.00;99.90;;;;;;12001165;28;20086;-86
2021/05/16 17:07:13;;;;;;;2.30;0.90;;;22.70;97.40;;;;;;11993337;28;20053;-91
2021/05/16 17:12:59;;;;;;;4.43;1.40;;;20.90;96.90;;;;;;12012634;28;20145;-85
2021/05/16 17:18:46;;;;;;;4.75;1.17;;;19.40;99.90;;;;;;11977340;28;20509;-82
2021/05/16 17:24:38;;;;;;;3.72;1.25;;;18.50;99.90;;;;;;11990222;28;20048;-83
2021/05/16 17:30:55;;;;;;;3.20;1.10;;;18.00;99.90;;;;;;11957598;28;20124;-85
2021/05/16 17:36:43;;;;;;;11.85;0.90;;;17.40;99.90;;;;;;12015106;28;20045;-85
2021/05/16 17:42:29;;;;;;;4.53;0.70;;;16.20;99.90;;;;;;11983755;28;20532;-85
2021/05/16 17:48:17;;;;;;;2.70;0.93;;;15.60;99.90;;;;;;11971644;28;20091;-84
2021/05/16 17:54:06;;;;;;;5.88;1.48;;;15.70;99.90;;;;;;11958885;28;20045;-79
2021/05/16 17:59:52;;;;;;;3.22;1.08;;;15.60;99.90;;;;;;11992279;28;20544;-78
2021/05/16 18:05:38;;;;;;;4.80;1.17;;;15.70;99.90;;;;;;12028355;28;20514;-77
2021/05/16 18:11:28;;;;;;;2.85;1.05;;;15.50;99.90;;;;;;12028793;28;20037;-78
2021/05/16 18:17:15;;;;;;;2.97;0.77;;;15.60;99.90;;;;;;12014284;28;20066;-78
2021/05/16 18:23:01;;;;;;;4.68;1.40;;;15.50;99.90;;;;;;11990419;28;20087;-78
2021/05/16 18:28:53;;;;;;;2.42;0.60;;;15.20;99.90;;;;;;11998535;28;20097;-78
2021/05/16 18:34:40;;;;;;;6.15;1.13;;;14.60;99.90;;;;;;11986743;28;20720;-77
2021/05/16 18:40:27;;;;;;;4.30;2.00;;;14.30;99.90;;;;;;12008210;28;20056;-77
2021/05/16 18:46:15;;;;;;;6.93;1.40;;;14.60;99.90;;;;;;12004535;28;20143;-79
2021/05/16 18:52:01;;;;;;;6.78;3.33;;;15.00;99.90;;;;;;11999297;28;20430;-79
2021/05/16 18:57:48;;;;;;;5.63;1.20;;;15.20;99.90;;;;;;12000362;28;20091;-78
2021/05/16 19:03:35;;;;;;;2.05;0.95;;;15.20;99.90;;;;;;12005732;28;20574;-79
2021/05/16 19:09:22;;;;;;;4.07;0.82;;;15.20;99.90;;;;;;11999331;28;20159;-79
2021/05/16 19:15:24;;;;;;;4.00;1.17;;;15.10;99.90;;;;;;11992242;28;20577;-80
2021/05/16 19:21:14;;;;;;;2.65;0.80;;;15.00;99.90;;;;;;11962097;28;20052;-81
2021/05/16 19:27:09;;;;;;;4.72;1.08;;;15.00;99.90;;;;;;11973864;28;20064;-78
2021/05/16 19:32:59;;;;;;;4.57;1.33;;;15.10;99.90;;;;;;11943674;28;20056;-79
2021/05/16 19:38:48;;;;;;;5.45;1.40;;;15.00;99.90;;;;;;11939235;28;20057;-78
2021/05/16 19:44:38;;;;;;;2.45;0.93;;;15.00;99.90;;;;;;11987878;28;20587;-79
2021/05/16 19:50:34;;;;;;;3.45;1.50;;;15.00;99.90;;;;;;11993814;28;20048;-78
2021/05/16 19:56:21;;;;;;;6.53;1.00;;;15.10;99.90;;;;;;11997567;28;20432;-79
2021/05/16 20:02:11;;;;;;;3.13;1.00;;;15.10;99.90;;;;;;11982310;28;20063;-86
2021/05/16 20:08:01;;;;;;;2.63;1.10;;;15.10;99.90;;;;;;12027375;28;20083;-86
2021/05/16 20:13:52;;;;;;;2.28;0.90;;;15.10;99.90;;;;;;12023809;28;20080;-85
2021/05/16 20:19:42;;;;;;;5.85;1.20;;;15.10;99.90;;;;;;12017554;28;20132;-86
2021/05/16 20:32:23;;;;;;;6.40;1.50;;;15.10;99.90;;;;;;11820009;28;20053;-82
2021/05/16 20:38:24;;;;;;;3.90;0.90;;;15.20;99.90;;;;;;11842546;28;20055;-81
2021/05/16 20:44:54;;;;;;;3.92;1.08;;;15.10;99.90;;;;;;11849944;28;20116;-81
2021/05/16 20:57:25;;;;;;;13.43;1.55;;;14.90;99.90;;;;;;11738144;28;20046;-82
2021/05/16 21:03:26;;;;;;;8.82;1.70;;;14.80;99.90;;;;;;11812246;28;20061;-84
2021/05/16 21:15:49;;;;;;;9.35;1.77;;;14.70;99.90;;;;;;11767551;28;20062;-85
2021/05/16 21:21:38;;;;;;;6.47;1.63;;;14.70;99.90;;;;;;11847580;28;20061;-81
2021/05/16 21:27:43;;;;;;;9.43;1.40;;;14.60;99.90;;;;;;11932342;28;20805;-79
2021/05/16 21:39:55;;;;;;;11.70;2.35;;;14.60;99.90;;;;;;11857071;28;20045;-81
2021/05/16 21:46:08;;;;;;;;;;;;;;;;;;;;;
2021/05/16 21:52:00;;;;;;;5.90;1.70;;;14.50;99.90;;;;;;11919941;28;20894;-80
2021/05/16 21:57:50;;;;;;;8.88;1.42;;;14.50;99.90;;;;;;11911180;28;20140;-84
2021/05/16 22:03:37;;;;;;;7.97;1.90;;;14.60;99.90;;;;;;11914247;28;20111;-80
2021/05/16 22:09:25;;;;;;;5.20;1.30;;;14.60;99.90;;;;;;11916099;28;20077;-79
2021/05/16 22:15:12;;;;;;;5.25;1.45;;;14.60;99.90;;;;;;11961452;28;20051;-78
2021/05/16 22:20:58;;;;;;;4.80;1.35;;;14.60;99.90;;;;;;12009417;28;20049;-78
2021/05/16 22:26:52;;;;;;;8.45;1.40;;;14.70;99.90;;;;;;12017527;28;20761;-80
2021/05/16 22:32:39;;;;;;;13.18;1.88;;;14.60;99.90;;;;;;12008131;28;20060;-78
2021/05/16 22:38:27;;;;;;;6.80;1.20;;;14.60;99.90;;;;;;12010850;28;20057;-78
2021/05/16 22:44:15;;;;;;;6.47;1.15;;;14.60;99.90;;;;;;12017497;28;20111;-78
2021/05/16 22:50:02;;;;;;;5.90;1.08;;;14.50;99.90;;;;;;12023095;28;20752;-77
2021/05/16 22:55:48;;;;;;;5.57;1.10;;;14.20;99.90;;;;;;12029173;28;20052;-78
2021/05/16 23:01:36;;;;;;;7.50;1.55;;;14.20;99.90;;;;;;12032998;28;20052;-78
